createdAt,value
2022-12-13T00:01:41.720Z,75.89
2022-12-13T00:04:08.581Z,76.50
2022-12-13T00:06:33.110Z,76.66
2022-12-13T00:08:58.662Z,76.52
2022-12-13T00:11:22.453Z,76.06
2022-12-13T00:13:47.044Z,76.68
2022-12-13T00:16:15.063Z,77.58
2022-12-13T00:18:39.013Z,78.96
2022-12-13T00:21:07.190Z,78.03
2022-12-13T00:23:30.781Z,76.70
2022-12-13T00:25:55.829Z,77.31
2022-12-13T00:28:19.451Z,77.28
2022-12-13T00:30:43.358Z,77.96
2022-12-13T00:33:07.692Z,77.63
2022-12-13T00:35:31.351Z,78.38
2022-12-13T00:37:54.973Z,77.82
2022-12-13T00:40:18.760Z,77.76
2022-12-13T00:42:43.761Z,78.05
2022-12-13T00:45:09.606Z,78.63
2022-12-13T00:47:33.217Z,78.14
2022-12-13T00:49:56.934Z,77.86
2022-12-13T00:52:20.520Z,78.27
2022-12-13T00:54:44.169Z,77.75
2022-12-13T00:57:07.756Z,77.76
2022-12-13T00:59:32.867Z,77.07
2022-12-13T01:01:56.453Z,77.44
2022-12-13T01:04:20.169Z,76.69
2022-12-13T01:06:46.187Z,76.63
2022-12-13T01:09:18.994Z,77.04
2022-12-13T01:11:42.641Z,76.58
2022-12-13T01:14:06.305Z,76.53
2022-12-13T01:16:31.477Z,76.68
2022-12-13T01:18:56.038Z,76.12
2022-12-13T01:21:22.149Z,77.17
2022-12-13T01:23:46.877Z,75.62
2022-12-13T01:26:13.654Z,76.38
2022-12-13T01:28:37.512Z,76.31
2022-12-13T01:31:04.411Z,75.50
2022-12-13T01:33:30.972Z,76.15
2022-12-13T01:35:55.192Z,75.37
2022-12-13T01:38:19.266Z,74.99
2022-12-13T01:40:46.543Z,75.06
2022-12-13T01:43:14.423Z,75.69
2022-12-13T01:45:38.699Z,76.43
2022-12-13T01:48:06.665Z,75.98
2022-12-13T01:50:37.551Z,76.67
2022-12-13T01:53:02.055Z,76.41
2022-12-13T01:55:28.831Z,76.32
2022-12-13T01:57:55.122Z,75.31
2022-12-13T02:00:19.198Z,74.82
2022-12-13T02:02:43.259Z,75.78
2022-12-13T02:05:12.791Z,75.70
2022-12-13T02:07:40.283Z,75.52
2022-12-13T02:10:08.803Z,76.65
2022-12-13T02:12:36.259Z,75.83
2022-12-13T02:15:01.282Z,75.88
2022-12-13T02:17:45.323Z,75.22
2022-12-13T02:21:11.572Z,75.74
2022-12-13T02:24:19.917Z,75.52
2022-12-13T02:27:03.157Z,76.32
2022-12-13T02:30:17.223Z,76.23
2022-12-13T02:32:57.705Z,76.34
2022-12-13T02:35:28.465Z,75.21
2022-12-13T02:38:01.864Z,75.80
2022-12-13T02:40:29.459Z,75.37
2022-12-13T02:43:00.839Z,76.12
2022-12-13T02:45:31.455Z,75.81
2022-12-13T02:47:59.327Z,75.49
2022-12-13T02:50:24.780Z,75.63
2022-12-13T02:52:49.827Z,75.63
2022-12-13T02:55:17.370Z,75.98
2022-12-13T02:57:44.828Z,75.64
2022-12-13T03:00:12.485Z,75.34
2022-12-13T03:02:50.149Z,75.81
2022-12-13T03:05:57.513Z,76.41
2022-12-13T03:08:25.770Z,77.05
2022-12-13T03:11:00.139Z,76.19
2022-12-13T03:13:38.400Z,76.49
2022-12-13T03:16:14.940Z,76.12
2022-12-13T03:18:47.800Z,76.03
2022-12-13T03:21:15.600Z,77.43
2022-12-13T03:23:39.616Z,77.45
2022-12-13T03:26:07.791Z,76.02
2022-12-13T03:28:31.899Z,76.93
2022-12-13T03:30:55.558Z,77.19
2022-12-13T03:33:19.230Z,77.03
2022-12-13T03:35:45.792Z,76.98
2022-12-13T03:38:12.036Z,77.38
2022-12-13T03:40:36.669Z,77.45
2022-12-13T03:43:00.644Z,77.50
2022-12-13T03:45:24.272Z,76.42
2022-12-13T03:47:47.983Z,77.24
2022-12-13T03:50:26.695Z,78.22
2022-12-13T03:52:52.059Z,76.88
2022-12-13T03:55:17.324Z,77.16
2022-12-13T03:57:41.127Z,77.48
2022-12-13T04:00:07.588Z,77.14
2022-12-13T04:02:35.821Z,76.41
2022-12-13T04:05:00.767Z,77.90
2022-12-13T04:07:24.690Z,77.87
2022-12-13T04:09:48.308Z,77.23
2022-12-13T04:12:30.856Z,77.52
2022-12-13T04:14:54.508Z,77.16
2022-12-13T04:17:18.069Z,76.26
2022-12-13T04:19:41.741Z,77.03
2022-12-13T04:22:05.469Z,76.81
2022-12-13T04:24:31.197Z,76.76
2022-12-13T04:26:55.865Z,77.32
2022-12-13T04:29:20.979Z,77.41
2022-12-13T04:31:44.839Z,77.30
2022-12-13T04:34:08.602Z,77.24
2022-12-13T04:36:32.958Z,77.22
2022-12-13T04:38:56.640Z,78.15
2022-12-13T04:41:24.389Z,77.01
2022-12-13T04:43:53.544Z,77.41
2022-12-13T04:46:18.528Z,76.80
2022-12-13T04:48:42.193Z,76.54
2022-12-13T04:51:06.045Z,76.58
2022-12-13T04:53:30.049Z,75.96
2022-12-13T04:55:53.881Z,76.84
2022-12-13T04:58:22.863Z,76.42
2022-12-13T05:00:47.526Z,76.21
2022-12-13T05:03:13.074Z,76.21
2022-12-13T05:05:39.874Z,75.84
2022-12-13T05:08:03.626Z,76.27
2022-12-13T05:10:34.245Z,76.03
2022-12-13T05:13:01.539Z,76.18
2022-12-13T05:15:25.215Z,75.29
2022-12-13T05:17:48.855Z,75.26
2022-12-13T05:20:14.143Z,76.11
2022-12-13T05:22:38.119Z,75.38
2022-12-13T05:25:01.835Z,74.85
2022-12-13T05:27:26.945Z,75.68
2022-12-13T05:29:52.073Z,74.59
2022-12-13T05:32:18.705Z,74.44
2022-12-13T05:34:42.491Z,74.97
2022-12-13T05:37:07.729Z,76.41
2022-12-13T05:39:31.376Z,76.03
2022-12-13T05:41:55.942Z,75.42
2022-12-13T05:44:25.870Z,75.18
2022-12-13T05:46:49.479Z,75.76
2022-12-13T05:49:13.659Z,76.32
2022-12-13T05:51:37.358Z,76.43
2022-12-13T05:54:02.559Z,76.49
2022-12-13T05:56:26.285Z,76.27
2022-12-13T05:58:53.443Z,76.52
2022-12-13T06:01:18.760Z,76.27
2022-12-13T06:03:43.266Z,76.13
2022-12-13T06:06:09.280Z,75.42
2022-12-13T06:08:33.632Z,74.87
2022-12-13T06:11:10.760Z,75.08
2022-12-13T06:13:35.893Z,75.39
2022-12-13T06:16:08.456Z,75.28
2022-12-13T06:18:47.470Z,75.02
2022-12-13T06:21:14.660Z,75.10
2022-12-13T06:23:38.508Z,75.72
2022-12-13T06:26:07.280Z,75.77
2022-12-13T06:28:30.935Z,75.28
2022-12-13T06:30:55.610Z,75.60
2022-12-13T06:33:23.453Z,75.55
2022-12-13T06:35:47.477Z,76.02
2022-12-13T06:38:12.039Z,77.42
2022-12-13T06:40:35.911Z,75.85
2022-12-13T06:43:01.017Z,75.60
2022-12-13T06:45:25.456Z,76.95
2022-12-13T06:47:49.143Z,76.88
2022-12-13T06:50:12.749Z,76.18
2022-12-13T06:52:36.640Z,76.63
2022-12-13T06:55:00.277Z,75.91
2022-12-13T06:57:24.001Z,75.55
2022-12-13T06:59:49.051Z,75.13
2022-12-13T07:02:24.817Z,75.11
2022-12-13T07:04:49.625Z,75.88
2022-12-13T07:07:13.291Z,75.76
2022-12-13T07:09:37.081Z,75.59
2022-12-13T07:12:01.616Z,76.16
2022-12-13T07:14:28.927Z,76.73
2022-12-13T07:16:59.608Z,77.02
2022-12-13T07:19:26.880Z,75.47
2022-12-13T07:22:01.447Z,77.31
2022-12-13T07:24:25.087Z,77.43
2022-12-13T07:26:48.817Z,76.58
2022-12-13T07:29:12.597Z,75.81
2022-12-13T07:31:46.026Z,75.59
2022-12-13T07:34:15.474Z,76.69
2022-12-13T07:36:39.406Z,76.10
2022-12-13T07:39:02.988Z,76.20
2022-12-13T07:41:28.119Z,76.92
2022-12-13T07:43:55.087Z,76.05
2022-12-13T07:46:31.775Z,76.57
2022-12-13T07:49:01.780Z,75.94
2022-12-13T07:51:27.205Z,76.78
2022-12-13T07:53:50.890Z,76.71
2022-12-13T07:56:15.256Z,76.09
2022-12-13T07:58:39.146Z,76.33
2022-12-13T08:01:07.805Z,75.69
2022-12-13T08:03:31.912Z,76.87
2022-12-13T08:06:01.796Z,76.75
2022-12-13T08:08:30.873Z,76.40
2022-12-13T08:10:55.407Z,76.38
2022-12-13T08:13:25.189Z,76.68
2022-12-13T08:15:48.852Z,77.39
2022-12-13T08:18:13.078Z,77.91
2022-12-13T08:20:37.630Z,77.99
2022-12-13T08:23:02.874Z,77.96
2022-12-13T08:25:28.333Z,77.69
2022-12-13T08:27:51.990Z,76.14
2022-12-13T08:30:22.848Z,76.66
2022-12-13T08:32:47.425Z,76.99
2022-12-13T08:35:11.255Z,75.61
2022-12-13T08:37:34.963Z,76.77
2022-12-13T08:39:58.577Z,76.54
2022-12-13T08:42:25.014Z,76.19
2022-12-13T08:44:50.391Z,76.80
2022-12-13T08:47:23.817Z,75.26
2022-12-13T08:49:49.132Z,76.69
2022-12-13T08:52:12.749Z,77.09
2022-12-13T08:54:36.402Z,76.69
2022-12-13T08:57:00.032Z,75.91
2022-12-13T08:59:26.741Z,75.66
2022-12-13T09:01:53.612Z,75.16
2022-12-13T09:04:18.863Z,75.51
2022-12-13T09:06:55.528Z,75.16
2022-12-13T09:09:19.097Z,76.01
2022-12-13T09:11:42.961Z,76.13
2022-12-13T09:14:07.051Z,75.68
2022-12-13T09:16:39.184Z,75.35
2022-12-13T09:19:06.548Z,76.28
2022-12-13T09:21:46.583Z,76.38
2022-12-13T09:24:23.472Z,75.40
2022-12-13T09:26:48.530Z,74.95
2022-12-13T09:29:20.977Z,75.08
2022-12-13T09:31:51.132Z,74.91
2022-12-13T09:34:16.949Z,74.82
2022-12-13T09:36:40.592Z,75.03
2022-12-13T09:39:04.424Z,74.52
2022-12-13T09:41:34.237Z,75.22
2022-12-13T09:44:32.815Z,75.09
2022-12-13T09:47:01.085Z,75.52
2022-12-13T09:49:35.238Z,75.22
2022-12-13T09:52:10.902Z,74.96
2022-12-13T09:54:36.510Z,74.43
2022-12-13T09:57:00.390Z,74.76
2022-12-13T09:59:30.540Z,74.59
2022-12-13T10:01:55.946Z,75.11
2022-12-13T10:04:20.179Z,74.85
2022-12-13T10:06:44.022Z,74.68
2022-12-13T10:09:12.479Z,74.97
2022-12-13T10:11:36.146Z,74.97
2022-12-13T10:14:05.819Z,74.52
2022-12-13T10:16:37.945Z,73.96
2022-12-13T10:19:05.038Z,74.56
2022-12-13T10:21:35.659Z,74.96
2022-12-13T10:24:32.967Z,75.14
2022-12-13T10:26:56.099Z,74.38
2022-12-13T10:29:19.789Z,75.06
2022-12-13T10:31:46.206Z,75.35
2022-12-13T10:34:22.877Z,74.72
2022-12-13T10:36:46.565Z,74.38
2022-12-13T10:39:19.219Z,73.69
2022-12-13T10:41:42.918Z,74.84
2022-12-13T10:44:26.538Z,75.67
2022-12-13T10:47:07.890Z,74.45
2022-12-13T10:49:41.087Z,74.88
2022-12-13T10:52:05.535Z,74.70
2022-12-13T10:54:38.710Z,74.64
2022-12-13T10:57:13.446Z,74.03
2022-12-13T10:59:39.628Z,74.89
2022-12-13T11:02:04.575Z,74.58
2022-12-13T11:04:32.114Z,73.98
2022-12-13T11:06:59.115Z,74.42
2022-12-13T11:09:38.945Z,74.47
2022-12-13T11:12:12.923Z,75.11
2022-12-13T11:14:50.000Z,74.86
2022-12-13T11:17:19.921Z,74.98
2022-12-13T11:19:50.579Z,73.78
2022-12-13T11:22:25.579Z,73.89
2022-12-13T11:24:54.154Z,73.72
2022-12-13T11:27:39.942Z,73.61
2022-12-13T11:30:13.582Z,74.34
2022-12-13T11:33:02.593Z,75.04
2022-12-13T11:35:35.150Z,74.13
2022-12-13T11:38:17.331Z,74.45
2022-12-13T11:40:46.069Z,72.94
2022-12-13T11:43:21.574Z,72.39
2022-12-13T11:45:54.223Z,73.15
2022-12-13T11:48:25.483Z,71.88
2022-12-13T11:50:52.241Z,72.43
2022-12-13T11:53:28.412Z,72.61
2022-12-13T11:55:57.684Z,72.79
2022-12-13T12:01:19.016Z,70.91
2022-12-13T12:03:49.473Z,71.63
2022-12-13T12:06:21.431Z,70.84
2022-12-13T12:08:54.967Z,70.96
2022-12-13T12:11:27.955Z,70.37
2022-12-13T12:13:55.669Z,71.23
2022-12-13T12:16:32.264Z,70.49
2022-12-13T12:18:56.219Z,70.94
2022-12-13T12:22:12.303Z,70.43
2022-12-13T12:24:30.897Z,70.53
2022-12-13T12:27:22.075Z,70.70
2022-12-13T12:30:04.575Z,70.36
2022-12-13T12:32:38.144Z,71.08
2022-12-13T12:35:26.846Z,70.61
2022-12-13T12:37:58.229Z,69.38
2022-12-13T12:43:38.424Z,70.69
2022-12-13T12:46:25.141Z,70.81
2022-12-13T12:49:31.215Z,70.54
2022-12-13T12:52:03.197Z,72.40
2022-12-13T12:54:44.537Z,72.09
2022-12-13T12:57:18.968Z,70.53
2022-12-13T13:00:01.666Z,70.60
2022-12-13T13:02:34.226Z,70.87
2022-12-13T13:05:04.705Z,71.40
2022-12-13T13:07:39.786Z,71.54
2022-12-13T13:10:26.443Z,70.02
2022-12-13T13:12:51.094Z,71.25
2022-12-13T13:15:56.895Z,70.80
2022-12-13T13:18:47.077Z,72.39
2022-12-13T13:21:36.643Z,71.12
2022-12-13T13:24:25.521Z,71.24
2022-12-13T13:26:51.811Z,70.40
2022-12-13T13:29:43.643Z,71.71
2022-12-13T13:32:30.368Z,70.88
2022-12-13T13:35:00.830Z,70.64
2022-12-13T13:37:47.993Z,71.81
2022-12-13T13:40:32.276Z,71.54
2022-12-13T13:43:19.384Z,71.92
2022-12-13T13:46:11.636Z,71.21
2022-12-13T13:48:55.845Z,71.26
2022-12-13T13:52:24.316Z,70.95
2022-12-13T13:55:27.616Z,71.57
2022-12-13T13:58:36.869Z,71.07
2022-12-13T14:01:30.760Z,71.27
2022-12-13T14:04:48.883Z,70.59
2022-12-13T14:08:02.622Z,70.86
2022-12-13T14:10:51.760Z,70.32
2022-12-13T14:14:06.541Z,71.44
2022-12-13T14:17:32.799Z,71.30
2022-12-13T14:20:45.039Z,72.01
2022-12-13T14:23:21.583Z,71.08
2022-12-13T14:26:29.690Z,71.18
2022-12-13T14:28:57.763Z,70.98
2022-12-13T14:31:25.819Z,71.62
2022-12-13T14:33:53.597Z,70.89
2022-12-13T14:36:19.819Z,71.74
2022-12-13T14:38:43.542Z,70.69
2022-12-13T14:41:08.931Z,71.62
2022-12-13T14:43:35.495Z,71.55
2022-12-13T14:46:01.273Z,70.95
2022-12-13T14:48:28.917Z,71.80
2022-12-13T14:50:55.144Z,71.74
2022-12-13T14:53:27.759Z,71.88
2022-12-13T14:56:07.614Z,71.39
2022-12-13T14:58:31.396Z,72.00
2022-12-13T15:00:57.803Z,71.74
2022-12-13T15:03:25.408Z,72.29
2022-12-13T15:05:55.809Z,71.07
2022-12-13T15:08:21.183Z,72.08
2022-12-13T15:10:49.159Z,71.41
2022-12-13T15:13:29.188Z,71.58
2022-12-13T15:15:56.984Z,70.48
2022-12-13T15:18:26.557Z,71.01
2022-12-13T15:21:01.945Z,71.23
2022-12-13T15:23:41.724Z,71.28
2022-12-13T15:26:27.949Z,71.41
2022-12-13T15:28:58.110Z,72.21
2022-12-13T15:31:22.229Z,71.36
2022-12-13T15:33:48.601Z,71.24
2022-12-13T15:36:18.930Z,71.23
2022-12-13T15:39:01.662Z,71.44
2022-12-13T15:41:30.063Z,72.75
2022-12-13T15:43:56.367Z,72.94
2022-12-13T15:46:26.910Z,72.46
2022-12-13T15:48:52.086Z,72.45
2022-12-13T15:51:28.902Z,72.60
2022-12-13T15:54:08.346Z,72.10
2022-12-13T15:56:34.485Z,73.18
2022-12-13T15:58:58.257Z,73.46
2022-12-13T16:01:29.164Z,72.29
2022-12-13T16:03:53.225Z,72.28
2022-12-13T16:06:22.791Z,72.18
2022-12-13T16:08:49.516Z,73.12
2022-12-13T16:11:13.149Z,73.89
2022-12-13T16:13:39.960Z,74.53
2022-12-13T16:16:26.712Z,74.62
2022-12-13T16:18:56.828Z,74.06
2022-12-13T16:21:21.893Z,74.88
2022-12-13T16:23:48.829Z,74.83
2022-12-13T16:26:13.843Z,74.93
2022-12-13T16:28:37.880Z,74.88
2022-12-13T16:31:13.982Z,74.86
2022-12-13T16:33:37.906Z,73.92
2022-12-13T16:36:01.577Z,75.44
2022-12-13T16:38:27.505Z,75.26
2022-12-13T16:40:55.339Z,75.38
2022-12-13T16:43:20.741Z,75.90
2022-12-13T16:45:47.622Z,75.11
2022-12-13T16:48:12.214Z,75.36
2022-12-13T16:50:37.215Z,75.82
2022-12-13T16:53:01.120Z,75.85
2022-12-13T16:55:28.825Z,76.50
2022-12-13T16:58:00.822Z,76.78
2022-12-13T17:00:24.760Z,76.16
2022-12-13T17:02:48.548Z,76.87
2022-12-13T17:05:12.198Z,76.55
2022-12-13T17:07:36.594Z,76.64
2022-12-13T17:10:01.181Z,77.59
2022-12-13T17:12:27.553Z,77.57
2022-12-13T17:14:51.221Z,77.22
2022-12-13T17:17:17.716Z,78.10
2022-12-13T17:19:41.753Z,77.38
2022-12-13T17:22:05.364Z,77.95
2022-12-13T17:24:29.025Z,76.18
2022-12-13T17:26:54.809Z,78.05
2022-12-13T17:29:20.334Z,77.53
2022-12-13T17:31:44.791Z,77.67
2022-12-13T17:34:08.524Z,78.43
2022-12-13T17:36:32.353Z,78.35
2022-12-13T17:38:55.997Z,78.51
2022-12-13T17:41:19.660Z,78.03
2022-12-13T17:43:44.299Z,78.43
2022-12-13T17:46:13.439Z,77.78
2022-12-13T17:48:40.706Z,77.89
2022-12-13T17:51:05.521Z,78.24
2022-12-13T17:53:29.374Z,78.21
2022-12-13T17:55:57.953Z,77.91
2022-12-13T17:58:21.703Z,78.41
2022-12-13T18:00:45.266Z,78.99
2022-12-13T18:03:10.305Z,78.97
2022-12-13T18:05:36.886Z,78.54
2022-12-13T18:08:00.737Z,78.56
2022-12-13T18:10:29.502Z,78.37
2022-12-13T18:12:53.833Z,78.66
2022-12-13T18:15:17.488Z,78.58
2022-12-13T18:18:10.173Z,78.04
2022-12-13T18:20:26.347Z,78.60
2022-12-13T18:22:51.573Z,78.31
2022-12-13T18:25:15.509Z,78.20
2022-12-13T18:27:39.063Z,78.44
2022-12-13T18:30:03.005Z,78.51
2022-12-13T18:32:26.615Z,78.53
2022-12-13T18:34:50.286Z,78.34
2022-12-13T18:37:19.744Z,77.95
2022-12-13T18:39:43.967Z,77.90
2022-12-13T18:42:18.676Z,78.46
2022-12-13T18:44:42.264Z,78.92
2022-12-13T18:47:21.151Z,78.43
2022-12-13T18:49:54.603Z,77.87
2022-12-13T18:52:20.542Z,78.59
2022-12-13T18:54:46.030Z,78.06
2022-12-13T18:57:19.418Z,77.59
2022-12-13T18:59:43.648Z,77.43
2022-12-13T19:02:18.279Z,77.57
2022-12-13T19:04:43.066Z,77.87
2022-12-13T19:07:20.729Z,78.88
2022-12-13T19:09:44.346Z,78.47
2022-12-13T19:12:18.254Z,77.54
2022-12-13T19:14:41.943Z,78.18
2022-12-13T19:17:05.631Z,78.23
2022-12-13T19:19:29.363Z,77.92
2022-12-13T19:21:53.113Z,78.13
2022-12-13T19:24:18.289Z,78.34
2022-12-13T19:26:42.005Z,78.62
2022-12-13T19:29:05.745Z,78.29
2022-12-13T19:31:32.344Z,78.79
2022-12-13T19:33:58.002Z,78.39
2022-12-13T19:36:21.618Z,78.48
2022-12-13T19:38:46.174Z,78.25
2022-12-13T19:41:14.232Z,77.91
2022-12-13T19:43:38.170Z,78.56
2022-12-13T19:46:03.963Z,77.93
2022-12-13T19:48:27.595Z,77.74
2022-12-13T19:50:51.266Z,77.45
2022-12-13T19:53:14.906Z,77.02
2022-12-13T19:55:43.619Z,77.00
2022-12-13T19:58:08.619Z,77.72
2022-12-13T20:00:32.356Z,77.44
2022-12-13T20:02:56.116Z,78.86
2022-12-13T20:05:20.602Z,78.36
2022-12-13T20:07:44.474Z,79.43
2022-12-13T20:10:09.876Z,78.74
2022-12-13T20:12:37.197Z,78.93
2022-12-13T20:15:05.052Z,78.50
2022-12-13T20:17:28.690Z,77.75
2022-12-13T20:19:52.355Z,78.24
2022-12-13T20:22:16.866Z,78.68
2022-12-13T20:24:40.508Z,79.21
2022-12-13T20:27:04.181Z,79.33
2022-12-13T20:29:28.069Z,78.78
2022-12-13T20:31:54.290Z,78.47
2022-12-13T20:34:18.067Z,78.32
2022-12-13T20:36:42.798Z,78.86
2022-12-13T20:39:08.235Z,78.48
2022-12-13T20:41:34.436Z,79.16
2022-12-13T20:44:00.199Z,78.54
2022-12-13T20:46:24.925Z,78.01
2022-12-13T20:48:51.343Z,77.97
2022-12-13T20:51:17.231Z,78.42
2022-12-13T20:53:44.565Z,78.63
2022-12-13T20:56:11.974Z,78.44
2022-12-13T20:58:39.888Z,77.49
2022-12-13T21:01:05.499Z,77.91
2022-12-13T21:03:29.378Z,76.92
2022-12-13T21:05:54.599Z,78.46
2022-12-13T21:08:36.697Z,78.28
2022-12-13T21:11:20.500Z,78.13
2022-12-13T21:13:44.217Z,78.33
2022-12-13T21:16:14.609Z,78.05
2022-12-13T21:18:38.308Z,78.92
2022-12-13T21:21:03.344Z,78.36
2022-12-13T21:23:27.314Z,77.35
2022-12-13T21:25:53.471Z,77.43
2022-12-13T21:28:17.147Z,77.79
2022-12-13T21:30:40.743Z,77.26
2022-12-13T21:33:04.468Z,77.80
2022-12-13T21:35:28.111Z,78.41
2022-12-13T21:37:57.783Z,78.06
2022-12-13T21:40:29.291Z,78.11
2022-12-13T21:42:52.869Z,78.20
2022-12-13T21:45:16.684Z,78.10
2022-12-13T21:47:40.240Z,78.43
2022-12-13T21:50:04.179Z,77.52
2022-12-13T21:52:27.787Z,77.19
2022-12-13T21:55:03.500Z,78.33
2022-12-13T21:57:53.774Z,78.17
2022-12-13T22:00:18.064Z,78.39
2022-12-13T22:02:41.735Z,77.94
2022-12-13T22:05:06.249Z,78.37
2022-12-13T22:07:31.618Z,78.21
2022-12-13T22:09:57.686Z,78.72
2022-12-13T22:12:24.326Z,79.33
2022-12-13T22:14:48.600Z,78.53
2022-12-13T22:17:12.544Z,78.40
2022-12-13T22:19:36.205Z,77.76
2022-12-13T22:21:59.818Z,78.33
2022-12-13T22:24:23.484Z,77.78
2022-12-13T22:26:48.502Z,78.12
2022-12-13T22:29:14.128Z,78.34
2022-12-13T22:31:37.828Z,78.46
2022-12-13T22:34:01.586Z,77.48
2022-12-13T22:36:25.774Z,77.66
2022-12-13T22:38:50.823Z,78.39
2022-12-13T22:41:16.134Z,78.36
2022-12-13T22:43:41.642Z,78.16
2022-12-13T22:46:08.239Z,77.85
2022-12-13T22:48:32.496Z,77.43
2022-12-13T22:50:56.066Z,77.02
2022-12-13T22:53:20.083Z,77.61
2022-12-13T22:55:43.670Z,78.64
2022-12-13T22:58:10.420Z,78.16
2022-12-13T23:00:35.504Z,78.06
2022-12-13T23:02:59.301Z,78.03
2022-12-13T23:05:22.924Z,77.97
2022-12-13T23:07:48.582Z,77.96
2022-12-13T23:10:32.930Z,78.31
2022-12-13T23:13:04.269Z,79.25
2022-12-13T23:15:27.941Z,78.66
2022-12-13T23:17:52.929Z,78.04
2022-12-13T23:20:16.813Z,78.73
2022-12-13T23:22:40.476Z,78.54
2022-12-13T23:25:04.140Z,78.20
2022-12-13T23:27:27.822Z,77.83
2022-12-13T23:29:51.613Z,77.17
2022-12-13T23:32:15.469Z,77.25
2022-12-13T23:34:40.525Z,77.32
2022-12-13T23:37:04.155Z,78.20
2022-12-13T23:39:28.022Z,77.81
2022-12-13T23:41:52.075Z,77.57
2022-12-13T23:44:15.958Z,77.41
2022-12-13T23:46:39.965Z,77.32
2022-12-13T23:49:05.895Z,76.41
2022-12-13T23:51:31.120Z,77.49
2022-12-13T23:53:54.913Z,77.22
2022-12-13T23:56:18.935Z,77.31
2022-12-13T23:58:44.544Z,77.44
